• Join FlightAware (Why Join?)
  • Login
  • US Flag 
03:37AM EST


 

Airport Tracker/Info


-or-


 

Live Flight TrackerFlight Track Log ✈ ASQ5678 ✈ 17-Jun-2013 ✈ KEWR - KCVG

Flight Track Log - Related Links

Times and Time Zones

All times are in EDT time to prevent confusion due to time zone crossing. See the ASQ5678 flight status page for this flight to view local times or setup timezone preferences in your user account.

Time Position Orientation Groundspeed Altitude Reporting Facility
EDT Latitude Longitude Course Direction KTS MPH feet Rate Location/Type
06:19PM 40.6500 -74.1833 276° West 179 206 1,900  Level New York TRACON
06:20PM 40.6167 -74.2500 237° Southwest 244 281 3,000 1,620 Climbing New York TRACON
06:21PM 40.7322 -74.5143 303° West  Level FlightAware Approximate
06:21PM 40.6333 -74.3333 285° West 257 296 5,200  Level New York TRACON
06:22PM 40.7442 -74.6358 277° West  Level FlightAware Approximate
06:22PM 40.6500 -74.4167 285° West 265 305 7,300  Level New York TRACON
06:23PM 40.7545 -74.7579 276° West  Level FlightAware Approximate
06:23PM 40.6833 -74.5167 294° West 276 318 9,400  Level New York TRACON
06:24PM 40.7639 -74.8801 276° West  Level FlightAware Approximate
06:24PM 40.7000 -74.6167 282° West 287 330 10,800  Level New York TRACON
06:25PM 40.7186 -74.7164 284° West 326 375 11,400 1,020 Climbing New York Center
06:26PM 40.7400 -74.8192 285° West 334 384 12,800 1,380 Climbing New York Center
06:27PM 40.7669 -74.9467 286° West 329 379 14,300 1,380 Climbing New York Center
06:28PM 40.7919 -75.0606 286° West 329 379 15,600 1,140 Climbing New York Center
06:29PM 40.7964 -75.1678 273° West 322 371 16,600 960 Climbing New York Center
06:30PM 40.7706 -75.3006 256° West 334 384 17,600 900 Climbing New York Center
06:31PM 40.7228 -75.4014 238° Southwest 345 397 18,500 900 Climbing New York Center
06:32PM 40.6686 -75.5097 237° Southwest 356 410 19,400 960 Climbing New York Center
06:33PM 40.6244 -75.6244 243° Southwest 362 417 20,500 900 Climbing New York Center
06:34PM 40.5836 -75.7500 247° West 362 417 21,300 840 Climbing New York Center
06:35PM 40.5453 -75.8700 247° West 362 417 22,200 840 Climbing New York Center
06:36PM 40.4975 -76.0086 246° West 374 430 23,000 900 Climbing New York Center
06:37PM 40.4586 -76.1336 248° West 374 430 24,000 960 Climbing New York Center
06:38PM 40.4194 -76.2561 247° West 374 430 25,000 960 Climbing New York Center
06:39PM 40.3808 -76.3731 247° West 368 423 26,000 840 Climbing New York Center
06:40PM 40.3511 -76.4686 248° West 363 418 26,800 960 Climbing New York Center
06:41PM 40.3008 -76.6033 244° Southwest 352 405 28,000 1,080 Climbing New York Center
06:42PM 40.2558 -76.7111 241° Southwest 346 398 29,000 960 Climbing New York Center
06:43PM 40.2131 -76.8161 242° Southwest 340 391 30,000 960 Climbing New York Center
06:44PM 40.1678 -76.9208 241° Southwest 340 391 31,000 960 Climbing New York Center
06:45PM 40.1411 -77.0325 253° West 340 391 32,000 960 Climbing New York Center
06:46PM 40.1433 -77.1497 271° West 320 368 33,000 960 Climbing New York Center
06:47PM 40.1389 -77.2661 267° West 320 368 33,900 900 Climbing New York Center
06:49PM 40.1394 -77.4761 270° West 306 352 35,800 660 Climbing Cleveland Center
06:50PM 40.1406 -77.5928 271° West 311 358 36,000 60 Climbing Cleveland Center
06:51PM 40.1436 -77.7122 272° West 326 375 36,000  Level Cleveland Center
06:52PM 40.1489 -77.8425 273° West 340 391 36,000  Level Cleveland Center
06:53PM 40.1458 -77.9783 268° West 360 414 36,000  Level Cleveland Center
06:54PM 40.1489 -78.1114 272° West 374 430 36,000  Level Cleveland Center
06:55PM 40.1514 -78.2417 271° West 374 430 36,000  Level Cleveland Center
06:56PM 40.1542 -78.3692 272° West 363 418 36,000  Level Cleveland Center
06:57PM 40.1564 -78.4994 271° West 363 418 36,000  Level Cleveland Center
06:58PM 40.1733 -78.6294 280° West 363 418 36,000  Level Cleveland Center
06:59PM 40.2006 -78.7564 286° West 363 418 36,000  Level Cleveland Center
07:00PM 40.2253 -78.8781 285° West 363 418 36,000  Level Cleveland Center
07:01PM 40.2522 -79.0000 286° West 356 410 36,000  Level Cleveland Center
07:02PM 40.2767 -79.1217 285° West 356 410 36,000  Level Cleveland Center
07:03PM 40.3031 -79.2408 286° West 356 410 36,000  Level Cleveland Center
07:04PM 40.3317 -79.3711 286° West 351 404 36,000  Level Cleveland Center
07:05PM 40.3558 -79.4906 285° West 345 397 36,000  Level Cleveland Center
07:06PM 40.3797 -79.6047 285° West 334 384 36,000  Level Cleveland Center
07:07PM 40.4036 -79.7217 285° West 334 384 36,000  Level Cleveland Center
07:08PM 40.4275 -79.8358 285° West 334 384 36,000  Level Cleveland Center
07:09PM 40.4303 -79.9422 272° West 334 384 36,000  Level Cleveland Center
07:10PM 40.4142 -80.0842 262° West 341 392 36,000  Level Cleveland Center
07:11PM 40.4022 -80.2097 263° West 352 405 36,000  Level Cleveland Center
07:12PM 40.3900 -80.3406 263° West 352 405 36,000  Level Cleveland Center
07:13PM 40.3819 -80.4550 265° West 352 405 36,000  Level Cleveland Center
07:14PM 40.3694 -80.5778 262° West 352 405 36,000  Level Cleveland Center
07:15PM 40.3569 -80.7056 263° West 352 405 36,000  Level Cleveland Center
07:16PM 40.3442 -80.8336 263° West 352 405 36,000  Level Cleveland Center
07:17PM 40.3314 -80.9589 262° West 352 405 36,000 -60 Level Cleveland Center
07:18PM 40.3183 -81.0814 262° West 352 405 35,900 -900 Descending Cleveland Center
07:19PM 40.3033 -81.2006 261° West 347 399 34,400 -1,020 Descending Indianapolis Center
07:20PM 40.2908 -81.3258 263° West 346 398 34,000 -240 Descending Indianapolis Center
07:21PM 40.2761 -81.4567 262° West 356 410 34,000  Level Indianapolis Center
07:22PM 40.2628 -81.5853 262° West 353 406 34,000  Level Indianapolis Center
07:23PM 40.2492 -81.7161 262° West 359 413 34,000  Level Indianapolis Center
07:24PM 40.2353 -81.8467 262° West 354 407 34,000  Level Indianapolis Center
07:25PM 40.2228 -81.9739 263° West 351 404 34,000  Level Indianapolis Center
07:26PM 40.2422 -82.1019 281° West 355 409 34,000  Level Indianapolis Center
07:27PM 40.2611 -82.2292 281° West 356 410 34,000 -420 Level Indianapolis Center
07:28PM 40.2806 -82.3575 281° West 355 409 33,200 -1,140 Descending Indianapolis Center
07:29PM 40.2900 -82.4889 275° West 363 418 31,700 -1,080 Descending Indianapolis Center
07:30PM 40.2386 -82.6061 240° Southwest 374 430 31,000 -360 Descending Indianapolis Center
07:31PM 40.1569 -82.7117 225° Southwest 354 407 31,000 -300 Level Indianapolis Center
07:32PM 40.0889 -82.8003 225° Southwest 343 395 30,400 -1,020 Descending Indianapolis Center
07:33PM 40.0378 -82.9078 238° Southwest 346 398 29,000 -1,440 Descending Indianapolis Center
07:34PM 39.9906 -83.0139 240° Southwest 341 392 27,500 -1,440 Descending Indianapolis Center
07:35PM 39.9456 -83.1161 240° Southwest 329 379 26,100 -1,440 Descending Indianapolis Center
07:36PM 39.9000 -83.2164 239° Southwest 321 369 24,600 -1,440 Descending Indianapolis Center
07:37PM 39.8533 -83.3197 240° Southwest 325 374 23,200 -1,440 Descending Indianapolis Center
07:38PM 39.8056 -83.4206 238° Southwest 321 369 21,700 -1,500 Descending Indianapolis Center
07:39PM 39.7575 -83.5306 240° Southwest 334 384 20,200 -1,500 Descending Indianapolis Center
07:40PM 39.7100 -83.6350 239° Southwest 333 383 18,700 -1,740 Descending Indianapolis Center
07:41PM 39.6636 -83.7444 241° Southwest 340 391 16,700 -2,040 Descending Indianapolis Center
07:42PM 39.6147 -83.8581 241° Southwest 355 409 14,600 -2,040 Descending Indianapolis Center
07:43PM 39.5614 -83.9650 237° Southwest 349 402 12,600 -1,800 Descending Indianapolis Center
07:44PM 39.5072 -84.0706 236° Southwest 350 403 11,000 -1,080 Descending Indianapolis Center
07:45PM 39.4472 -84.1889 237° Southwest 336 387 10,400 -540 Descending Indianapolis Center
07:46PM 39.3839 -84.2725 226° Southwest 327 376 9,900 -1,080 Descending Indianapolis Center
07:47PM 39.3361 -84.3539 233° Southwest 290 334 8,200 -1,740 Descending Indianapolis Center
07:48PM 39.3031 -84.4406 244° Southwest 271 312 6,400 -1,080 Descending Indianapolis Center
07:49PM 39.2756 -84.5150 245° Southwest 236 272 6,000 -840 Descending Indianapolis Center
07:50PM 39.2531 -84.5822 247° West 209 241 4,800 -1,020 Descending Indianapolis Center
07:51PM 39.2369 -84.6547 254° West 208 239 4,000 -780 Descending Indianapolis Center